Time;durP1;ratioP1;P1;durP2;ratioP2;P2;SDS_P1;SDS_P2;PMS_P1;PMS_P2;Temp;Humidity;BMP_temperature;BMP_pressure;BME280_temperature;BME280_humidity;BME280_pressure;Samples;Min_cycle;Max_cycle;Signal;HPM_P1;HPM_P2
2021/10/11 18:02:13;;;;;;;79.55;49.80;;;10.20;76.50;;;;;;5050127;28;20057;-69
2021/10/11 18:04:39;;;;;;;63.95;40.38;;;10.10;76.40;;;;;;5058803;28;20491;-69
2021/10/11 18:07:05;;;;;;;97.35;57.78;;;10.10;76.90;;;;;;5073849;28;20025;-69
2021/10/11 18:09:31;;;;;;;67.45;40.25;;;10.00;76.60;;;;;;5048752;28;20483;-71
2021/10/11 18:11:58;;;;;;;72.60;44.25;;;9.90;77.20;;;;;;5051109;28;20025;-70
2021/10/11 18:14:23;;;;;;;109.30;64.55;;;9.80;77.40;;;;;;5065928;28;20082;-71
2021/10/11 18:16:50;;;;;;;59.35;37.85;;;9.70;77.40;;;;;;5051535;28;20467;-71
2021/10/11 18:19:16;;;;;;;62.50;40.88;;;9.70;78.10;;;;;;5058491;28;20081;-70
2021/10/11 18:21:41;;;;;;;48.53;32.25;;;9.60;78.60;;;;;;5058801;28;20028;-71
2021/10/11 18:24:07;;;;;;;64.10;32.58;;;9.60;79.20;;;;;;5087288;28;20032;-67
2021/10/11 18:26:33;;;;;;;54.30;35.95;;;9.60;79.60;;;;;;5082645;28;20539;-71
2021/10/11 18:28:59;;;;;;;36.78;24.80;;;9.60;79.80;;;;;;5078892;28;20531;-70
2021/10/11 18:31:25;;;;;;;36.03;24.10;;;9.70;80.50;;;;;;5057400;28;20033;-72
2021/10/11 18:33:51;;;;;;;35.13;24.80;;;9.70;81.70;;;;;;5061646;28;20027;-69
2021/10/11 18:36:17;;;;;;;36.95;25.77;;;9.80;81.30;;;;;;5068117;28;20098;-70
2021/10/11 18:38:46;;;;;;;36.92;25.33;;;9.90;81.60;;;;;;5077365;28;20056;-70
2021/10/11 18:41:12;;;;;;;59.47;39.28;;;9.90;81.60;;;;;;5073435;28;20020;-71
2021/10/11 18:43:38;;;;;;;97.35;57.13;;;9.90;80.70;;;;;;5076971;28;20111;-71
2021/10/11 18:46:04;;;;;;;113.55;67.13;;;9.90;79.40;;;;;;5062290;28;20562;-71
2021/10/11 18:48:30;;;;;;;71.47;46.25;;;9.80;78.50;;;;;;5076457;28;20033;-70
2021/10/11 18:50:56;;;;;;;74.93;44.75;;;9.70;79.20;;;;;;5055487;28;20035;-71
2021/10/11 18:53:21;;;;;;;122.43;72.82;;;9.60;79.70;;;;;;5073974;28;20378;-69
2021/10/11 18:55:47;;;;;;;153.30;87.30;;;9.50;78.60;;;;;;5072665;28;20103;-70
2021/10/11 18:58:13;;;;;;;115.13;68.63;;;9.30;77.90;;;;;;5058777;28;20478;-71
2021/10/11 19:00:38;;;;;;;116.22;68.75;;;9.20;78.00;;;;;;5051847;28;20052;-70
2021/10/11 19:03:04;;;;;;;135.50;79.72;;;9.10;78.90;;;;;;5054311;28;20068;-70
2021/10/11 19:05:30;;;;;;;165.68;98.47;;;9.00;79.00;;;;;;5070727;28;20041;-70
2021/10/11 19:07:56;;;;;;;189.02;109.80;;;8.90;79.50;;;;;;5051994;28;20032;-70
2021/10/11 19:10:21;;;;;;;217.95;125.45;;;8.90;80.20;;;;;;5061512;28;20090;-70
2021/10/11 19:12:51;;;;;;;265.05;143.07;;;8.80;81.20;;;;;;5054421;28;20021;-70
2021/10/11 19:15:17;;;;;;;236.80;144.57;;;8.80;81.10;;;;;;5054669;28;20028;-72
2021/10/11 19:17:42;;;;;;;219.40;133.20;;;8.80;81.40;;;;;;5058681;28;20039;-71
2021/10/11 19:20:10;;;;;;;176.48;108.97;;;8.80;82.10;;;;;;5057321;28;20033;-72
2021/10/11 19:22:37;;;;;;;232.60;133.57;;;8.80;82.60;;;;;;5049299;28;20028;-72
2021/10/11 19:25:04;;;;;;;259.08;159.70;;;8.80;82.90;;;;;;5052988;28;20033;-73
2021/10/11 19:27:29;;;;;;;523.95;260.10;;;8.80;82.60;;;;;;5074513;28;20040;-72
2021/10/11 19:29:55;;;;;;;279.70;147.10;;;8.80;82.20;;;;;;5054130;28;20024;-71
2021/10/11 19:32:21;;;;;;;184.40;106.32;;;8.70;81.00;;;;;;5073421;28;20032;-71
2021/10/11 19:34:47;;;;;;;165.25;100.93;;;8.60;80.10;;;;;;5075031;28;20423;-72
2021/10/11 19:37:12;;;;;;;176.88;108.18;;;8.40;80.90;;;;;;5064254;28;20028;-72
2021/10/11 19:39:38;;;;;;;171.57;107.00;;;8.30;81.00;;;;;;5056765;28;20364;-72
2021/10/11 19:42:04;;;;;;;186.40;113.78;;;8.20;82.90;;;;;;5059827;28;20161;-72
2021/10/11 19:44:30;;;;;;;237.27;141.90;;;8.30;83.20;;;;;;5078730;28;20045;-71
2021/10/11 19:46:56;;;;;;;197.73;122.95;;;8.20;83.60;;;;;;5067940;28;20032;-72
2021/10/11 19:49:25;;;;;;;183.88;115.00;;;8.20;84.50;;;;;;5053983;28;20386;-72
2021/10/11 19:51:51;;;;;;;164.48;102.18;;;8.10;84.90;;;;;;5051274;28;20037;-72
2021/10/11 19:54:16;;;;;;;160.65;100.35;;;8.10;85.40;;;;;;5052059;28;20047;-71
2021/10/11 19:56:42;;;;;;;188.98;114.75;;;8.20;85.40;;;;;;5074660;28;20083;-72
2021/10/11 19:59:08;;;;;;;86.80;58.97;;;8.10;85.20;;;;;;5054730;28;20052;-72
2021/10/11 20:01:35;;;;;;;111.60;71.88;;;8.20;87.60;;;;;;5060104;28;20036;-71
2021/10/11 20:04:00;;;;;;;73.57;49.47;;;8.30;88.60;;;;;;5056052;28;20055;-71
2021/10/11 20:06:26;;;;;;;64.78;44.38;;;8.30;88.20;;;;;;5075877;28;20040;-72
2021/10/11 20:08:52;;;;;;;189.23;116.65;;;8.40;88.50;;;;;;5061774;28;20064;-72
2021/10/11 20:11:18;;;;;;;63.55;43.70;;;8.40;87.30;;;;;;5057943;28;20116;-72
2021/10/11 20:13:44;;;;;;;78.28;52.97;;;8.50;86.80;;;;;;5060353;28;20028;-72
2021/10/11 20:16:10;;;;;;;172.77;112.57;;;8.50;86.00;;;;;;5056267;28;20402;-72
2021/10/11 20:18:36;;;;;;;105.35;65.13;;;8.70;84.70;;;;;;5054231;28;20028;-78
2021/10/11 20:21:04;;;;;;;164.45;98.25;;;8.70;83.10;;;;;;5065457;28;20113;-71
2021/10/11 20:23:30;;;;;;;159.90;101.72;;;8.80;82.70;;;;;;5042669;28;20063;-71
2021/10/11 20:25:55;;;;;;;151.05;94.13;;;8.80;82.20;;;;;;5081635;28;20032;-71
2021/10/11 20:28:22;;;;;;;178.27;106.43;;;8.80;82.20;;;;;;5060852;28;20029;-72
2021/10/11 20:30:47;;;;;;;72.75;48.83;;;8.80;81.40;;;;;;5071650;28;20474;-71
2021/10/11 20:33:13;;;;;;;44.33;31.20;;;8.70;80.90;;;;;;5074450;28;20032;-71
2021/10/11 20:35:40;;;;;;;173.52;105.13;;;8.70;80.00;;;;;;5082839;28;20024;-71
2021/10/11 20:38:06;;;;;;;73.30;47.58;;;8.80;79.40;;;;;;5058406;28;20032;-71
2021/10/11 20:40:33;;;;;;;161.15;98.80;;;8.80;79.20;;;;;;5059474;28;20467;-71
2021/10/11 20:42:58;;;;;;;103.88;64.82;;;8.80;78.70;;;;;;5060017;28;20024;-71
2021/10/11 20:45:24;;;;;;;102.15;66.93;;;8.70;78.60;;;;;;5056687;28;20127;-72
2021/10/11 20:47:50;;;;;;;83.10;53.17;;;8.70;79.20;;;;;;5074730;28;20036;-71
2021/10/11 20:50:15;;;;;;;82.88;54.05;;;8.70;78.30;;;;;;5080302;28;20028;-71
2021/10/11 20:52:41;;;;;;;77.47;50.78;;;8.70;78.00;;;;;;5080497;28;20032;-71
2021/10/11 20:55:07;;;;;;;81.38;51.22;;;8.80;77.70;;;;;;5074334;28;20119;-71
2021/10/11 20:57:33;;;;;;;75.90;49.90;;;8.80;77.80;;;;;;5054839;28;20025;-72
2021/10/11 21:00:01;;;;;;;85.35;55.60;;;8.80;76.70;;;;;;5075806;28;20083;-71
2021/10/11 21:02:27;;;;;;;90.65;63.83;;;8.80;76.50;;;;;;5079962;28;20025;-71
2021/10/11 21:04:52;;;;;;;106.57;68.97;;;8.80;76.30;;;;;;5074116;28;20083;-73
2021/10/11 21:07:19;;;;;;;103.43;69.30;;;8.80;76.10;;;;;;5057928;28;20119;-71
2021/10/11 21:09:45;;;;;;;108.05;69.97;;;8.80;76.00;;;;;;5076518;28;20127;-72
2021/10/11 21:12:11;;;;;;;121.93;75.88;;;8.70;75.80;;;;;;5081533;28;20481;-71
2021/10/11 21:14:37;;;;;;;99.57;62.28;;;8.70;76.10;;;;;;5058083;28;20040;-70
2021/10/11 21:17:04;;;;;;;93.90;60.60;;;8.60;76.00;;;;;;5058996;28;20390;-71
2021/10/11 21:19:30;;;;;;;82.82;54.78;;;8.60;76.30;;;;;;5070256;28;20487;-71
2021/10/11 21:21:55;;;;;;;81.60;52.28;;;8.50;76.10;;;;;;5074263;28;20104;-71
2021/10/11 21:24:21;;;;;;;77.78;51.05;;;8.50;76.00;;;;;;5059300;28;20058;-71
2021/10/11 21:26:47;;;;;;;95.53;60.08;;;8.60;76.00;;;;;;5073814;28;20032;-72
2021/10/11 21:29:13;;;;;;;101.28;63.17;;;8.50;75.90;;;;;;5073855;28;20035;-72
2021/10/11 21:31:39;;;;;;;92.50;58.08;;;8.50;75.80;;;;;;5055852;28;20073;-71
2021/10/11 21:34:04;;;;;;;113.25;68.45;;;8.50;75.90;;;;;;5080674;28;20477;-71
2021/10/11 21:36:31;;;;;;;97.05;61.03;;;8.50;76.00;;;;;;5074028;28;20035;-72
2021/10/11 21:38:57;;;;;;;112.13;69.22;;;8.50;76.00;;;;;;5055813;28;20371;-71
2021/10/11 21:41:23;;;;;;;96.03;60.25;;;8.50;76.10;;;;;;5084662;28;20032;-71
2021/10/11 21:43:49;;;;;;;108.60;67.85;;;8.50;76.80;;;;;;5060567;28;20028;-72
2021/10/11 21:46:14;;;;;;;117.97;75.45;;;8.50;76.20;;;;;;5086445;28;20050;-72
2021/10/11 21:48:40;;;;;;;114.38;69.82;;;8.50;76.40;;;;;;5085689;28;20051;-72
2021/10/11 21:51:06;;;;;;;106.43;68.80;;;8.50;76.50;;;;;;5069797;28;20026;-72
2021/10/11 21:53:32;;;;;;;108.18;69.05;;;8.50;76.50;;;;;;5082795;28;20048;-72
2021/10/11 21:55:59;;;;;;;98.45;66.93;;;8.50;76.50;;;;;;5052850;28;20059;-72
2021/10/11 21:58:27;;;;;;;103.30;65.28;;;8.50;76.50;;;;;;5062225;28;20062;-72
2021/10/11 22:00:54;;;;;;;115.82;77.28;;;8.50;76.70;;;;;;5071041;28;20089;-72
2021/10/11 22:03:20;;;;;;;146.55;93.60;;;8.50;76.50;;;;;;5039709;28;20049;-71
2021/10/11 22:05:46;;;;;;;93.30;58.22;;;8.40;76.20;;;;;;5033188;28;20048;-71
2021/10/11 22:08:13;;;;;;;95.13;57.05;;;8.40;76.30;;;;;;5036483;28;20036;-71
2021/10/11 22:10:42;;;;;;;121.57;77.70;;;8.30;76.60;;;;;;5045238;28;20095;-72
2021/10/11 22:13:09;;;;;;;178.85;113.35;;;8.20;76.50;;;;;;5037862;28;20035;-71
2021/10/11 22:15:35;;;;;;;83.38;54.22;;;8.10;76.00;;;;;;5041334;28;20039;-72
2021/10/11 22:18:01;;;;;;;88.32;56.83;;;8.00;77.00;;;;;;5047505;28;20496;-71
2021/10/11 22:20:27;;;;;;;88.38;55.15;;;8.00;78.90;;;;;;5031344;28;20025;-71
2021/10/11 22:22:53;;;;;;;136.15;86.07;;;8.00;79.40;;;;;;5035239;28;20391;-72
2021/10/11 22:25:19;;;;;;;91.28;57.83;;;8.00;79.00;;;;;;5039684;28;20049;-71
2021/10/11 22:27:45;;;;;;;127.72;83.93;;;8.00;78.90;;;;;;5041198;28;20037;-70
2021/10/11 22:30:12;;;;;;;76.68;52.28;;;8.00;78.50;;;;;;5035301;28;20025;-72
2021/10/11 22:32:39;;;;;;;185.93;116.25;;;8.00;78.90;;;;;;5033428;28;20025;-72
2021/10/11 22:35:05;;;;;;;84.20;56.20;;;8.00;78.10;;;;;;5033124;28;20106;-72
2021/10/11 22:37:31;;;;;;;183.20;119.53;;;8.00;78.60;;;;;;5035493;28;20037;-72
2021/10/11 22:39:57;;;;;;;170.25;109.88;;;8.00;78.00;;;;;;5033667;28;20357;-71
2021/10/11 22:42:22;;;;;;;156.60;101.50;;;8.00;77.50;;;;;;5034653;28;20065;-72
2021/10/11 22:44:48;;;;;;;92.60;57.15;;;7.90;77.70;;;;;;5028245;28;20026;-72
2021/10/11 22:47:14;;;;;;;159.98;103.82;;;8.00;79.30;;;;;;5029947;28;20029;-72
2021/10/11 22:49:39;;;;;;;184.07;114.63;;;8.00;79.00;;;;;;5033453;28;20026;-72
2021/10/11 22:52:23;;;;;;;82.57;54.25;;;8.00;78.30;;;;;;5033884;28;20029;-71
2021/10/11 22:54:49;;;;;;;124.07;80.97;;;8.10;79.90;;;;;;5027471;28;20030;-71
2021/10/11 22:57:16;;;;;;;164.93;106.43;;;8.10;79.80;;;;;;5022927;28;20543;-70
2021/10/11 22:59:42;;;;;;;167.57;103.25;;;8.10;79.00;;;;;;5035258;28;20096;-73
2021/10/11 23:02:11;;;;;;;106.85;70.55;;;8.10;78.60;;;;;;5034085;28;20041;-69
2021/10/11 23:04:37;;;;;;;105.43;66.28;;;8.20;79.20;;;;;;5037008;28;20406;-69
2021/10/11 23:07:04;;;;;;;127.35;86.47;;;8.20;80.20;;;;;;5035087;28;20029;-69
2021/10/11 23:09:30;;;;;;;142.82;92.10;;;8.30;80.20;;;;;;5034434;28;20065;-69
2021/10/11 23:11:56;;;;;;;118.13;78.75;;;8.20;79.40;;;;;;5027604;28;20031;-70
2021/10/11 23:14:22;;;;;;;159.65;102.15;;;8.20;79.50;;;;;;5042723;28;20052;-68
2021/10/11 23:16:48;;;;;;;140.55;89.18;;;8.20;79.00;;;;;;5051273;28;20029;-69
2021/10/11 23:19:14;;;;;;;102.72;68.50;;;8.10;79.20;;;;;;5033378;28;20043;-69
2021/10/11 23:21:39;;;;;;;97.40;65.18;;;8.20;80.20;;;;;;5045076;28;20029;-71
2021/10/11 23:24:05;;;;;;;134.65;86.57;;;8.20;80.70;;;;;;5043882;28;20017;-68
2021/10/11 23:26:31;;;;;;;173.25;113.47;;;8.20;80.60;;;;;;5035315;28;20471;-69
2021/10/11 23:28:57;;;;;;;130.68;86.45;;;8.20;79.20;;;;;;5041598;28;20020;-68
2021/10/11 23:31:22;;;;;;;182.45;118.45;;;8.10;79.20;;;;;;5037905;28;20388;-68
2021/10/11 23:33:48;;;;;;;180.60;115.75;;;8.10;78.30;;;;;;5041431;28;20383;-69
2021/10/11 23:36:14;;;;;;;173.88;117.30;;;7.90;77.60;;;;;;5046902;28;20030;-70
2021/10/11 23:38:39;;;;;;;177.65;115.38;;;7.80;77.60;;;;;;5036741;28;20041;-72
2021/10/11 23:41:06;;;;;;;176.77;113.90;;;7.60;77.70;;;;;;5035269;28;20467;-70
2021/10/11 23:43:32;;;;;;;179.93;116.10;;;7.50;78.20;;;;;;5032547;28;20025;-68
2021/10/11 23:45:58;;;;;;;182.48;116.00;;;7.40;78.50;;;;;;5044291;28;20037;-69
2021/10/11 23:48:24;;;;;;;172.52;111.68;;;7.40;78.70;;;;;;5045563;28;20533;-69
2021/10/11 23:50:49;;;;;;;165.13;108.63;;;7.30;78.90;;;;;;5038341;28;20086;-69
2021/10/11 23:53:15;;;;;;;169.27;107.72;;;7.30;79.30;;;;;;5037958;28;20049;-69
2021/10/11 23:55:41;;;;;;;159.00;102.28;;;7.30;79.60;;;;;;5045094;28;20021;-70
2021/10/11 23:58:07;;;;;;;158.25;104.95;;;7.30;79.80;;;;;;5043297;28;20380;-68
